Time;durP1;ratioP1;P1;durP2;ratioP2;P2;SDS_P1;SDS_P2;PMS_P1;PMS_P2;Temp;Humidity;BMP_temperature;BMP_pressure;BME280_temperature;BME280_humidity;BME280_pressure;Samples;Min_cycle;Max_cycle;Signal;HPM_P1;HPM_P2
2022/08/03 00:02:19;;;;;;;6.30;4.60;;;;;;;;;;5093502;28;20446;-60
2022/08/03 00:04:46;;;;;;;4.80;4.40;;;;;;;;;;5093524;28;20493;-60
2022/08/03 00:07:13;;;;;;;5.40;4.33;;;;;;;;;;5093657;28;20485;-60
2022/08/03 00:09:40;;;;;;;4.37;4.07;;;;;;;;;;5093568;28;20455;-60
2022/08/03 00:12:08;;;;;;;4.60;4.30;;;;;;;;;;5093493;28;20449;-60
2022/08/03 00:14:35;;;;;;;6.63;4.60;;;;;;;;;;5093426;28;20450;-60
2022/08/03 00:17:03;;;;;;;5.10;4.53;;;;;;;;;;5093260;28;20855;-60
2022/08/03 00:19:30;;;;;;;5.17;4.70;;;;;;;;;;5093180;28;20542;-60
2022/08/03 00:21:57;;;;;;;4.50;4.10;;;;;;;;;;5093401;28;20451;-60
2022/08/03 00:24:24;;;;;;;5.30;4.47;;;;;;;;;;5093417;28;20447;-60
2022/08/03 00:26:50;;;;;;;5.17;4.50;;;;;;;;;;5093269;28;20805;-60
2022/08/03 00:29:17;;;;;;;4.90;4.60;;;;;;;;;;5093128;28;21015;-60
2022/08/03 00:31:44;;;;;;;5.50;4.30;;;;;;;;;;5093044;28;20449;-60
2022/08/03 00:34:13;;;;;;;4.37;4.13;;;;;;;;;;5093046;28;20878;-60
2022/08/03 00:36:40;;;;;;;4.50;4.20;;;;;;;;;;5093118;28;20491;-60
2022/08/03 00:39:07;;;;;;;6.40;4.07;;;;;;;;;;5093188;28;20446;-60
2022/08/03 00:41:34;;;;;;;5.50;5.00;;;;;;;;;;5093042;28;20452;-60
2022/08/03 00:44:01;;;;;;;5.03;4.53;;;;;;;;;;5093003;28;20446;-60
2022/08/03 00:46:28;;;;;;;4.50;4.20;;;;;;;;;;5092806;28;20446;-60
2022/08/03 00:48:55;;;;;;;4.77;4.30;;;;;;;;;;5093093;28;20446;-60
2022/08/03 00:51:23;;;;;;;5.07;4.57;;;;;;;;;;5092981;28;20538;-60
2022/08/03 00:53:50;;;;;;;5.10;4.63;;;;;;;;;;5092987;28;20451;-60
2022/08/03 00:56:18;;;;;;;4.10;3.90;;;;;;;;;;5092637;28;20544;-60
2022/08/03 00:58:45;;;;;;;4.40;4.10;;;;;;;;;;5092869;28;20442;-60
2022/08/03 01:01:12;;;;;;;4.10;3.80;;;;;;;;;;5092710;28;20442;-60
2022/08/03 01:03:39;;;;;;;7.40;4.53;;;;;;;;;;5095277;28;20591;-60
2022/08/03 01:06:10;;;;;;;4.50;4.17;;;;;;;;;;5097046;28;20448;-60
2022/08/03 01:08:42;;;;;;;4.70;4.27;;;;;;;;;;5096983;28;20446;-60
2022/08/03 01:11:12;;;;;;;4.67;4.37;;;;;;;;;;5096959;28;20453;-60
2022/08/03 01:13:42;;;;;;;5.17;4.80;;;;;;;;;;5096741;28;20451;-60
2022/08/03 01:16:12;;;;;;;5.07;4.67;;;;;;;;;;5096784;28;20488;-60
2022/08/03 01:18:44;;;;;;;5.17;4.67;;;;;;;;;;5096870;28;20962;-60
2022/08/03 01:21:15;;;;;;;5.93;5.37;;;;;;;;;;5096764;28;20537;-60
2022/08/03 01:23:49;;;;;;;4.87;4.33;;;;;;;;;;5096670;28;20446;-60
2022/08/03 01:26:34;;;;;;;5.17;4.87;;;;;;;;;;5096513;28;20456;-60
2022/08/03 01:29:08;;;;;;;6.07;4.43;;;;;;;;;;5096382;28;20532;-60
2022/08/03 01:31:39;;;;;;;5.77;4.90;;;;;;;;;;5096612;28;20974;-60
2022/08/03 01:34:08;;;;;;;5.07;4.70;;;;;;;;;;5096436;28;20544;-60
2022/08/03 01:36:38;;;;;;;4.73;4.37;;;;;;;;;;5096238;28;20969;-60
2022/08/03 01:39:08;;;;;;;5.23;4.87;;;;;;;;;;5096430;28;20884;-60
2022/08/03 01:41:37;;;;;;;6.30;5.33;;;;;;;;;;5096292;28;20856;-60
2022/08/03 01:44:06;;;;;;;5.10;4.70;;;;;;;;;;5096249;28;20812;-60
2022/08/03 01:46:34;;;;;;;5.30;4.90;;;;;;;;;;5096138;28;20487;-60
2022/08/03 01:49:03;;;;;;;5.00;4.63;;;;;;;;;;5096060;28;20442;-60
2022/08/03 01:51:31;;;;;;;4.77;4.47;;;;;;;;;;5096229;28;20541;-60
2022/08/03 01:53:59;;;;;;;5.00;4.60;;;;;;;;;;5095954;28;20967;-60
2022/08/03 01:56:27;;;;;;;5.13;4.70;;;;;;;;;;5095534;28;20486;-60
2022/08/03 01:58:55;;;;;;;5.27;4.87;;;;;;;;;;5094749;28;20447;-60
2022/08/03 02:01:22;;;;;;;5.40;4.80;;;;;;;;;;5094614;28;20820;-60
2022/08/03 02:03:50;;;;;;;4.90;4.60;;;;;;;;;;5094576;28;20452;-60
2022/08/03 02:06:20;;;;;;;5.50;5.10;;;;;;;;;;5094784;28;20446;-60
2022/08/03 02:08:49;;;;;;;5.70;5.20;;;;;;;;;;5094549;28;20537;-60
2022/08/03 02:11:16;;;;;;;4.80;4.50;;;;;;;;;;5094593;28;20533;-60
2022/08/03 02:13:44;;;;;;;5.53;5.13;;;;;;;;;;5094141;28;20442;-60
2022/08/03 02:16:12;;;;;;;4.97;4.60;;;;;;;;;;5094275;28;20480;-60
2022/08/03 02:18:40;;;;;;;5.43;4.90;;;;;;;;;;5094587;28;20458;-60
2022/08/03 02:21:09;;;;;;;4.27;4.07;;;;;;;;;;5094458;28;20442;-60
2022/08/03 02:23:38;;;;;;;4.27;4.00;;;;;;;;;;5094505;28;20446;-60
2022/08/03 02:26:07;;;;;;;4.90;4.30;;;;;;;;;;5094285;28;21018;-60
2022/08/03 02:28:35;;;;;;;6.30;5.10;;;;;;;;;;5094666;28;20446;-60
2022/08/03 02:31:03;;;;;;;4.97;4.67;;;;;;;;;;5094415;28;20446;-60
2022/08/03 02:33:32;;;;;;;5.00;4.60;;;;;;;;;;5094632;28;20442;-60
2022/08/03 02:36:00;;;;;;;5.60;5.00;;;;;;;;;;5094149;28;20528;-60
2022/08/03 02:38:31;;;;;;;5.20;4.70;;;;;;;;;;5094196;28;20450;-60
2022/08/03 02:41:00;;;;;;;6.43;4.63;;;;;;;;;;5094115;28;20542;-60
2022/08/03 02:43:30;;;;;;;5.03;4.63;;;;;;;;;;5094172;28;20840;-60
2022/08/03 02:45:57;;;;;;;6.07;5.57;;;;;;;;;;5094080;28;20545;-60
2022/08/03 02:48:25;;;;;;;5.33;4.83;;;;;;;;;;5094006;28;20442;-60
2022/08/03 02:50:54;;;;;;;5.20;4.80;;;;;;;;;;5093967;28;20810;-60
2022/08/03 02:53:21;;;;;;;6.03;4.93;;;;;;;;;;5093780;28;20482;-60
2022/08/03 02:55:49;;;;;;;8.10;4.70;;;;;;;;;;5093874;28;20470;-60
2022/08/03 02:58:20;;;;;;;5.27;4.87;;;;;;;;;;5061126;28;956679;-60
2022/08/03 03:00:47;;;;;;;4.87;4.57;;;;;;;;;;5094856;28;20200;-60
2022/08/03 03:03:15;;;;;;;6.43;5.23;;;;;;;;;;5094705;28;20451;-60
2022/08/03 03:05:42;;;;;;;5.60;5.00;;;;;;;;;;5094580;28;20442;-60
2022/08/03 03:08:10;;;;;;;6.03;5.27;;;;;;;;;;5094450;28;20537;-60
2022/08/03 03:10:37;;;;;;;5.63;5.23;;;;;;;;;;5094681;28;20446;-60
2022/08/03 03:13:04;;;;;;;5.77;5.17;;;;;;;;;;5094548;28;20447;-60
2022/08/03 03:15:34;;;;;;;5.53;5.10;;;;;;;;;;5094350;28;20991;-60
2022/08/03 03:18:02;;;;;;;5.80;5.30;;;;;;;;;;5094463;28;20446;-60
2022/08/03 03:20:31;;;;;;;5.53;5.10;;;;;;;;;;5094194;28;20472;-61
2022/08/03 03:22:59;;;;;;;6.50;5.27;;;;;;;;;;5094357;28;20451;-60
2022/08/03 03:25:26;;;;;;;6.23;5.63;;;;;;;;;;5093601;28;20443;-60
2022/08/03 03:27:53;;;;;;;5.67;5.03;;;;;;;;;;5094242;28;20541;-60
2022/08/03 03:30:20;;;;;;;5.73;5.17;;;;;;;;;;5094241;28;20541;-60
2022/08/03 03:32:48;;;;;;;5.57;5.07;;;;;;;;;;5094103;28;20504;-60
2022/08/03 03:35:15;;;;;;;8.53;5.50;;;;;;;;;;5093990;28;20449;-60
2022/08/03 03:37:42;;;;;;;5.10;4.80;;;;;;;;;;5094082;28;20875;-60
2022/08/03 03:40:10;;;;;;;5.60;5.20;;;;;;;;;;5094097;28;20447;-61
2022/08/03 03:42:38;;;;;;;5.23;4.40;;;;;;;;;;5094009;28;20453;-60
2022/08/03 03:45:05;;;;;;;9.33;5.30;;;;;;;;;;5093921;28;20450;-60
2022/08/03 03:47:34;;;;;;;5.50;5.10;;;;;;;;;;5093847;28;20546;-60
2022/08/03 03:50:02;;;;;;;5.23;4.83;;;;;;;;;;5093721;28;20976;-60
2022/08/03 03:52:29;;;;;;;5.47;5.03;;;;;;;;;;5093888;28;20450;-60
2022/08/03 03:54:56;;;;;;;5.10;4.80;;;;;;;;;;5093730;28;20461;-60
2022/08/03 03:57:23;;;;;;;6.00;5.13;;;;;;;;;;5093248;28;20581;-60
2022/08/03 03:59:50;;;;;;;5.30;4.90;;;;;;;;;;5093573;28;20844;-60
2022/08/03 04:02:17;;;;;;;5.63;5.10;;;;;;;;;;5093429;28;20545;-60
2022/08/03 04:13:08;;;;;;;6.00;5.40;;;;;;;;;;5093356;28;20434;-61
2022/08/03 04:15:37;;;;;;;7.23;5.90;;;;;;;;;;5093503;28;20529;-61
2022/08/03 04:18:04;;;;;;;6.03;5.47;;;;;;;;;;5093299;28;20573;-60
2022/08/03 04:20:33;;;;;;;5.40;5.00;;;;;;;;;;5093356;28;20465;-60
2022/08/03 04:23:02;;;;;;;6.67;5.93;;;;;;;;;;5093159;28;20874;-61
2022/08/03 04:25:30;;;;;;;9.50;8.40;;;;;;;;;;5093175;28;20537;-60
2022/08/03 04:27:58;;;;;;;6.43;5.93;;;;;;;;;;5093263;28;20873;-60
2022/08/03 04:30:27;;;;;;;6.77;6.00;;;;;;;;;;5093209;28;20472;-60
2022/08/03 04:32:54;;;;;;;6.10;5.70;;;;;;;;;;5093011;28;20453;-60
2022/08/03 04:35:22;;;;;;;6.60;6.07;;;;;;;;;;5093074;28;20534;-60
2022/08/03 04:37:51;;;;;;;7.30;6.70;;;;;;;;;;5092676;28;20474;-60
2022/08/03 04:40:25;;;;;;;6.57;6.10;;;;;;;;;;5093117;28;20461;-60
2022/08/03 04:42:54;;;;;;;6.20;5.83;;;;;;;;;;5093139;28;20450;-60
2022/08/03 04:45:21;;;;;;;7.70;6.73;;;;;;;;;;5092913;28;20451;-60
2022/08/03 04:47:49;;;;;;;6.90;6.50;;;;;;;;;;5092828;28;20451;-60
2022/08/03 04:50:16;;;;;;;10.53;6.50;;;;;;;;;;5092833;28;20533;-60
2022/08/03 04:52:44;;;;;;;8.40;6.30;;;;;;;;;;5092953;28;20447;-60
2022/08/03 04:55:11;;;;;;;9.40;6.53;;;;;;;;;;5092993;28;20543;-60
2022/08/03 04:57:39;;;;;;;8.07;6.20;;;;;;;;;;5092638;28;20497;-60
2022/08/03 05:00:06;;;;;;;6.67;6.10;;;;;;;;;;5092806;28;20447;-60
2022/08/03 05:02:33;;;;;;;6.00;5.60;;;;;;;;;;5092611;28;20451;-61
2022/08/03 05:05:01;;;;;;;8.43;6.70;;;;;;;;;;5092889;28;20447;-60
2022/08/03 05:07:28;;;;;;;6.30;5.70;;;;;;;;;;5092839;28;20534;-61
2022/08/03 05:09:55;;;;;;;12.60;5.80;;;;;;;;;;5092836;28;20529;-60
2022/08/03 05:12:22;;;;;;;5.97;5.43;;;;;;;;;;5092796;28;20453;-60
2022/08/03 05:14:50;;;;;;;7.90;6.27;;;;;;;;;;5092602;28;20488;-60
2022/08/03 05:17:18;;;;;;;8.47;6.07;;;;;;;;;;5092536;28;20898;-60
2022/08/03 05:19:45;;;;;;;8.07;5.83;;;;;;;;;;5092464;28;20486;-60
2022/08/03 05:22:12;;;;;;;7.47;6.77;;;;;;;;;;5092739;28;20449;-61
2022/08/03 05:24:39;;;;;;;7.50;6.80;;;;;;;;;;5092689;28;20449;-60
2022/08/03 05:27:06;;;;;;;9.43;6.20;;;;;;;;;;5092567;28;20815;-60
2022/08/03 05:29:32;;;;;;;7.20;6.60;;;;;;;;;;5092953;28;20449;-60
2022/08/03 05:32:01;;;;;;;7.20;6.50;;;;;;;;;;5092426;28;20452;-61
2022/08/03 05:34:28;;;;;;;7.70;6.37;;;;;;;;;;5092680;28;20537;-61
2022/08/03 05:36:55;;;;;;;5.97;5.67;;;;;;;;;;5092435;28;20478;-60
2022/08/03 05:39:22;;;;;;;11.70;6.27;;;;;;;;;;5092384;28;20534;-60
2022/08/03 05:41:49;;;;;;;6.53;6.13;;;;;;;;;;5092413;28;20809;-60
2022/08/03 05:44:16;;;;;;;6.73;6.10;;;;;;;;;;5092159;28;20453;-61
2022/08/03 05:46:43;;;;;;;8.03;5.80;;;;;;;;;;5092230;28;20462;-61
2022/08/03 05:49:11;;;;;;;7.00;6.30;;;;;;;;;;5093766;28;20453;-60
2022/08/03 05:51:38;;;;;;;7.20;6.50;;;;;;;;;;5096167;28;20472;-61
2022/08/03 05:54:05;;;;;;;10.80;6.03;;;;;;;;;;5095720;28;21000;-61
2022/08/03 05:56:32;;;;;;;7.73;5.50;;;;;;;;;;5095641;28;20980;-61
2022/08/03 05:58:59;;;;;;;6.33;5.63;;;;;;;;;;5095808;28;20446;-61
2022/08/03 06:01:26;;;;;;;6.37;5.77;;;;;;;;;;5095607;28;20918;-61
2022/08/03 06:03:53;;;;;;;8.63;5.10;;;;;;;;;;5095751;28;20541;-61
2022/08/03 06:06:22;;;;;;;4.90;4.50;;;;;;;;;;5095825;28;20461;-61
2022/08/03 06:08:49;;;;;;;4.43;4.03;;;;;;;;;;5095710;28;20458;-60
2022/08/03 06:11:16;;;;;;;5.33;3.60;;;;;;;;;;5095475;28;20479;-60
2022/08/03 06:13:43;;;;;;;4.67;3.83;;;;;;;;;;5095264;28;20454;-61
2022/08/03 06:16:10;;;;;;;13.33;5.27;;;;;;;;;;5095130;28;20949;-61
2022/08/03 06:18:37;;;;;;;3.87;3.57;;;;;;;;;;5095483;28;20620;-61
2022/08/03 06:21:04;;;;;;;6.03;3.63;;;;;;;;;;5095624;28;20545;-61
2022/08/03 06:23:36;;;;;;;4.57;3.47;;;;;;;;;;5095774;28;20447;-63
2022/08/03 06:26:03;;;;;;;3.27;3.07;;;;;;;;;;5095439;28;20443;-60
2022/08/03 06:28:30;;;;;;;4.27;3.97;;;;;;;;;;5095395;28;20450;-60
2022/08/03 06:30:57;;;;;;;4.00;3.33;;;;;;;;;;5095436;28;20541;-60
2022/08/03 06:33:25;;;;;;;4.17;2.93;;;;;;;;;;5095225;28;20446;-60
2022/08/03 06:35:52;;;;;;;5.00;3.10;;;;;;;;;;5095194;28;20469;-60
2022/08/03 06:38:19;;;;;;;3.20;3.00;;;;;;;;;;5095174;28;20513;-60
2022/08/03 06:40:47;;;;;;;5.37;2.97;;;;;;;;;;5094955;28;20797;-60
2022/08/03 06:43:14;;;;;;;3.83;3.53;;;;;;;;;;5095039;28;20451;-60
2022/08/03 06:45:41;;;;;;;5.37;3.30;;;;;;;;;;5095101;28;20450;-60
2022/08/03 06:48:09;;;;;;;3.17;2.87;;;;;;;;;;5094907;28;20888;-60
2022/08/03 06:50:36;;;;;;;4.27;2.80;;;;;;;;;;5094777;28;20485;-60
2022/08/03 06:53:04;;;;;;;3.20;2.90;;;;;;;;;;5094739;28;20938;-60
2022/08/03 06:55:31;;;;;;;4.00;2.93;;;;;;;;;;5094918;28;20443;-60
2022/08/03 06:57:59;;;;;;;3.40;3.00;;;;;;;;;;5094429;28;20490;-60
2022/08/03 07:00:26;;;;;;;5.53;2.93;;;;;;;;;;5093505;28;20541;-60
2022/08/03 07:02:53;;;;;;;6.70;3.27;;;;;;;;;;5094600;28;20446;-60
2022/08/03 07:05:21;;;;;;;4.43;2.63;;;;;;;;;;5094456;28;20544;-60
2022/08/03 07:07:49;;;;;;;5.57;3.30;;;;;;;;;;5094373;28;20956;-61
2022/08/03 07:10:15;;;;;;;4.30;2.60;;;;;;;;;;5094542;28;20455;-61
2022/08/03 07:12:43;;;;;;;6.63;2.60;;;;;;;;;;5094460;28;20447;-60
2022/08/03 07:15:11;;;;;;;4.40;2.50;;;;;;;;;;5094522;28;20454;-60
2022/08/03 07:17:38;;;;;;;2.93;2.70;;;;;;;;;;5094241;28;20543;-60
2022/08/03 07:20:07;;;;;;;3.00;2.80;;;;;;;;;;5094165;28;20442;-60
2022/08/03 07:22:35;;;;;;;2.80;2.70;;;;;;;;;;5094032;28;20450;-60
2022/08/03 07:25:02;;;;;;;2.60;2.40;;;;;;;;;;5094005;28;20517;-60
2022/08/03 07:27:29;;;;;;;4.00;2.90;;;;;;;;;;5094269;28;20805;-60
2022/08/03 07:29:56;;;;;;;2.43;2.23;;;;;;;;;;5094098;28;20896;-60
2022/08/03 07:32:25;;;;;;;2.40;2.20;;;;;;;;;;5093968;28;21010;-60
2022/08/03 07:34:52;;;;;;;2.80;1.90;;;;;;;;;;5093917;28;20512;-60
2022/08/03 07:37:19;;;;;;;2.30;2.10;;;;;;;;;;5094065;28;20470;-60
2022/08/03 07:39:46;;;;;;;4.53;2.67;;;;;;;;;;5094023;28;20453;-60
2022/08/03 07:42:13;;;;;;;3.30;2.87;;;;;;;;;;5093532;28;20454;-60
2022/08/03 07:44:40;;;;;;;2.67;2.47;;;;;;;;;;5109214;28;20454;-59
2022/08/03 07:47:07;;;;;;;3.17;2.30;;;;;;;;;;5113815;28;20540;-61
2022/08/03 07:49:39;;;;;;;2.40;2.20;;;;;;;;;;5113985;28;20453;-59
2022/08/03 07:54:50;;;;;;;4.37;2.87;;;;;;;;;;5114055;28;20487;-59
2022/08/03 07:57:17;;;;;;;3.10;2.60;;;;;;;;;;5113776;28;20473;-59
2022/08/03 07:59:46;;;;;;;6.57;3.00;;;;;;;;;;5113850;28;20457;-60
2022/08/03 08:02:13;;;;;;;5.30;2.80;;;;;;;;;;5095357;28;20450;-59
2022/08/03 08:04:41;;;;;;;2.50;2.30;;;;;;;;;;5108530;28;20847;-59
2022/08/03 08:07:08;;;;;;;2.57;2.33;;;;;;;;;;5111158;28;20528;-60
2022/08/03 08:09:35;;;;;;;3.63;2.20;;;;;;;;;;5111718;28;20472;-58
2022/08/03 08:12:02;;;;;;;4.13;2.10;;;;;;;;;;5111195;28;20533;-58
2022/08/03 08:14:29;;;;;;;5.53;2.30;;;;;;;;;;5113262;28;20516;-59
2022/08/03 08:16:56;;;;;;;3.20;2.23;;;;;;;;;;5113718;28;20460;-60
2022/08/03 08:19:23;;;;;;;2.20;2.00;;;;;;;;;;5107245;27;20479;-61
2022/08/03 08:21:51;;;;;;;3.17;2.10;;;;;;;;;;5096072;28;20956;-61
2022/08/03 08:24:18;;;;;;;5.23;2.30;;;;;;;;;;5113386;28;20450;-61
2022/08/03 08:26:45;;;;;;;6.53;2.40;;;;;;;;;;5113584;28;20540;-63
2022/08/03 08:29:12;;;;;;;6.33;1.90;;;;;;;;;;5112465;28;20536;-61
2022/08/03 08:31:39;;;;;;;2.10;1.90;;;;;;;;;;5112410;28;20449;-61
2022/08/03 08:34:06;;;;;;;2.60;2.17;;;;;;;;;;5113227;28;20442;-58
2022/08/03 08:36:33;;;;;;;2.03;1.63;;;;;;;;;;5113344;28;20537;-57
2022/08/03 08:39:02;;;;;;;3.00;2.10;;;;;;;;;;5113332;28;20840;-59
2022/08/03 08:41:32;;;;;;;7.13;2.03;;;;;;;;;;5110651;28;20450;-61
2022/08/03 08:43:59;;;;;;;2.00;1.90;;;;;;;;;;5113405;28;20522;-61
2022/08/03 08:46:26;;;;;;;3.40;2.17;;;;;;;;;;5113524;28;20470;-61
2022/08/03 08:48:54;;;;;;;3.67;2.00;;;;;;;;;;5100964;28;20442;-61
2022/08/03 08:51:22;;;;;;;1.83;1.73;;;;;;;;;;5103883;28;20441;-61
2022/08/03 08:53:51;;;;;;;9.00;3.30;;;;;;;;;;5111096;28;20527;-63
2022/08/03 08:56:20;;;;;;;1.97;1.80;;;;;;;;;;5098207;28;20470;-61
2022/08/03 08:58:49;;;;;;;2.40;1.87;;;;;;;;;;5092754;28;21011;-61
2022/08/03 09:01:18;;;;;;;2.47;2.10;;;;;;;;;;5109799;28;20874;-59
2022/08/03 09:03:45;;;;;;;3.20;1.90;;;;;;;;;;5112026;28;20846;-60
2022/08/03 09:06:13;;;;;;;1.70;1.60;;;;;;;;;;5113048;28;20440;-61
2022/08/03 09:08:40;;;;;;;2.37;1.43;;;;;;;;;;5112920;28;20487;-61
2022/08/03 09:11:08;;;;;;;5.10;1.90;;;;;;;;;;5113198;28;20441;-60
2022/08/03 09:13:36;;;;;;;1.90;1.50;;;;;;;;;;5113038;28;20474;-65
2022/08/03 09:16:10;;;;;;;3.83;1.70;;;;;;;;;;5112127;28;21032;-59
2022/08/03 09:18:37;;;;;;;4.90;1.80;;;;;;;;;;5112795;28;21042;-61
2022/08/03 09:21:14;;;;;;;2.43;1.50;;;;;;;;;;5092822;28;20949;-62
2022/08/03 09:23:45;;;;;;;2.67;1.80;;;;;;;;;;5109574;28;20445;-62
2022/08/03 09:26:12;;;;;;;2.20;1.57;;;;;;;;;;5117006;28;20456;-60
2022/08/03 09:28:40;;;;;;;1.87;1.77;;;;;;;;;;5115040;28;20983;-60
2022/08/03 09:31:08;;;;;;;2.17;1.90;;;;;;;;;;5117110;28;20790;-60
2022/08/03 09:33:46;;;;;;;4.37;1.83;;;;;;;;;;5102946;28;20457;-60
2022/08/03 09:36:28;;;;;;;1.80;1.70;;;;;;;;;;5098870;27;20519;-61
2022/08/03 09:39:03;;;;;;;3.80;1.80;;;;;;;;;;5116493;28;20530;-60
2022/08/03 09:41:30;;;;;;;1.90;1.80;;;;;;;;;;5116642;28;20459;-60
2022/08/03 09:43:58;;;;;;;2.90;1.77;;;;;;;;;;5114438;27;20476;-60
2022/08/03 09:46:27;;;;;;;2.00;1.90;;;;;;;;;;5101017;28;20541;-59
2022/08/03 09:48:54;;;;;;;2.07;1.70;;;;;;;;;;5095895;28;20775;-60
2022/08/03 09:51:24;;;;;;;2.60;2.00;;;;;;;;;;5095915;28;21016;-59
2022/08/03 09:53:52;;;;;;;5.73;2.37;;;;;;;;;;5104880;28;20454;-60
2022/08/03 09:56:19;;;;;;;7.80;2.03;;;;;;;;;;5112670;28;20539;-59
2022/08/03 09:58:46;;;;;;;2.73;1.73;;;;;;;;;;5115741;28;20469;-59
2022/08/03 10:01:15;;;;;;;1.77;1.67;;;;;;;;;;5116276;28;20446;-59
2022/08/03 10:03:42;;;;;;;3.80;1.80;;;;;;;;;;5116175;28;20445;-58
2022/08/03 10:06:15;;;;;;;2.80;1.50;;;;;;;;;;5116084;28;20956;-58
2022/08/03 10:08:42;;;;;;;3.63;1.90;;;;;;;;;;5116097;28;20499;-59
2022/08/03 10:11:09;;;;;;;2.07;1.87;;;;;;;;;;5108396;28;20456;-60
2022/08/03 10:13:37;;;;;;;3.70;2.40;;;;;;;;;;5114223;28;21078;-61
2022/08/03 10:16:05;;;;;;;1.93;1.70;;;;;;;;;;5110806;27;20457;-61
2022/08/03 10:18:34;;;;;;;7.93;1.87;;;;;;;;;;5115578;28;20991;-60
2022/08/03 10:21:03;;;;;;;2.40;2.20;;;;;;;;;;5114980;28;20882;-62
2022/08/03 10:23:33;;;;;;;2.27;1.80;;;;;;;;;;5114332;28;20451;-61
2022/08/03 10:26:02;;;;;;;2.00;1.90;;;;;;;;;;5105391;27;20445;-60
2022/08/03 10:28:35;;;;;;;2.40;2.20;;;;;;;;;;5095552;27;20455;-60
2022/08/03 10:31:03;;;;;;;2.83;2.10;;;;;;;;;;5109936;27;20454;-57
2022/08/03 10:33:32;;;;;;;3.80;2.07;;;;;;;;;;5115557;28;20542;-57
2022/08/03 10:36:02;;;;;;;3.00;1.77;;;;;;;;;;5115101;28;20865;-57
2022/08/03 10:38:32;;;;;;;2.23;2.03;;;;;;;;;;5115660;28;20964;-57
2022/08/03 10:40:59;;;;;;;2.37;2.20;;;;;;;;;;5115653;28;20808;-57
2022/08/03 10:43:27;;;;;;;2.30;2.10;;;;;;;;;;5115377;28;20907;-56
2022/08/03 10:45:56;;;;;;;4.40;1.97;;;;;;;;;;5115221;28;20445;-56
2022/08/03 10:48:23;;;;;;;2.73;2.10;;;;;;;;;;5115136;28;20571;-56
2022/08/03 10:50:50;;;;;;;2.00;1.90;;;;;;;;;;5115033;28;20438;-59
2022/08/03 10:53:34;;;;;;;3.60;1.93;;;;;;;;;;5115337;28;20469;-59
2022/08/03 10:58:52;;;;;;;2.93;1.97;;;;;;;;;;5115144;28;20473;-56
2022/08/03 11:01:20;;;;;;;2.30;2.10;;;;;;;;;;5114970;28;20450;-57
2022/08/03 11:04:05;;;;;;;3.17;1.80;;;;;;;;;;5115315;28;20544;-57
2022/08/03 11:06:32;;;;;;;2.17;1.97;;;;;;;;;;5115219;28;20452;-58
2022/08/03 11:11:54;;;;;;;2.00;1.70;;;;;;;;;;5131219;27;20891;-57
2022/08/03 11:14:22;;;;;;;1.83;1.73;;;;;;;;;;5110538;28;20451;-58
2022/08/03 11:16:51;;;;;;;2.87;1.53;;;;;;;;;;5110652;28;20452;-58
2022/08/03 11:19:21;;;;;;;3.63;1.90;;;;;;;;;;5110659;28;20484;-58
2022/08/03 11:21:55;;;;;;;3.87;1.97;;;;;;;;;;5110431;28;20451;-58
2022/08/03 11:24:42;;;;;;;3.57;2.23;;;;;;;;;;5110583;28;20450;-58
2022/08/03 11:27:21;;;;;;;2.43;2.00;;;;;;;;;;5110485;28;20452;-58
2022/08/03 11:29:55;;;;;;;1.87;1.77;;;;;;;;;;5110316;28;20521;-58
2022/08/03 11:32:42;;;;;;;1.77;1.67;;;;;;;;;;5110382;28;20862;-58
2022/08/03 11:35:09;;;;;;;2.13;2.00;;;;;;;;;;5110243;28;20876;-58
2022/08/03 11:37:36;;;;;;;2.20;2.10;;;;;;;;;;5110277;28;20454;-58
2022/08/03 11:40:04;;;;;;;2.90;2.30;;;;;;;;;;5110271;28;20451;-58
2022/08/03 11:42:44;;;;;;;1.80;1.70;;;;;;;;;;5109999;28;20991;-58
2022/08/03 11:45:11;;;;;;;2.70;1.80;;;;;;;;;;5109842;28;20993;-58
2022/08/03 11:47:43;;;;;;;1.97;1.73;;;;;;;;;;5110088;28;20484;-58
2022/08/03 11:50:11;;;;;;;4.27;1.80;;;;;;;;;;5109788;28;20466;-58
2022/08/03 11:52:39;;;;;;;2.10;1.80;;;;;;;;;;5109917;28;20956;-58
2022/08/03 11:55:09;;;;;;;1.60;1.50;;;;;;;;;;5110356;28;20445;-58
2022/08/03 11:57:36;;;;;;;4.87;1.63;;;;;;;;;;5110033;28;20471;-58
2022/08/03 12:00:20;;;;;;;1.80;1.70;;;;;;;;;;5109886;28;20473;-58
2022/08/03 12:02:54;;;;;;;2.80;1.90;;;;;;;;;;5109772;28;20451;-58
2022/08/03 12:05:21;;;;;;;2.10;1.80;;;;;;;;;;5109613;28;20950;-58
2022/08/03 12:07:49;;;;;;;1.73;1.63;;;;;;;;;;5109553;28;21043;-58
2022/08/03 12:10:16;;;;;;;1.67;1.50;;;;;;;;;;5109507;28;20540;-59
2022/08/03 12:12:43;;;;;;;3.10;1.70;;;;;;;;;;5109705;28;20446;-58
2022/08/03 12:15:12;;;;;;;3.87;2.90;;;;;;;;;;5109564;28;20495;-58
2022/08/03 12:17:40;;;;;;;1.60;1.50;;;;;;;;;;5109453;28;20914;-59
2022/08/03 12:20:08;;;;;;;1.93;1.70;;;;;;;;;;5109422;28;20448;-58
2022/08/03 12:22:36;;;;;;;4.73;2.00;;;;;;;;;;5099104;28;20438;-58
2022/08/03 12:25:03;;;;;;;4.80;1.80;;;;;;;;;;5095781;28;20539;-58
2022/08/03 12:27:30;;;;;;;3.50;2.00;;;;;;;;;;5095863;28;20453;-58
2022/08/03 12:29:58;;;;;;;2.93;2.03;;;;;;;;;;5095504;28;20801;-58
2022/08/03 12:32:26;;;;;;;1.60;1.50;;;;;;;;;;5095562;28;20942;-58
2022/08/03 12:34:54;;;;;;;5.10;2.47;;;;;;;;;;5095323;28;20448;-58
2022/08/03 12:37:22;;;;;;;5.03;2.87;;;;;;;;;;5095684;28;20455;-59
2022/08/03 12:39:52;;;;;;;1.60;1.50;;;;;;;;;;5095571;28;20454;-58
2022/08/03 12:42:19;;;;;;;1.60;1.50;;;;;;;;;;5095434;28;20557;-58
2022/08/03 12:44:47;;;;;;;2.00;1.20;;;;;;;;;;5095367;28;20537;-57
2022/08/03 12:47:15;;;;;;;1.40;1.20;;;;;;;;;;5095085;28;20451;-58
2022/08/03 12:49:47;;;;;;;1.50;1.40;;;;;;;;;;5095031;28;20525;-58
2022/08/03 12:52:14;;;;;;;1.40;1.30;;;;;;;;;;5095199;28;20505;-58
2022/08/03 12:54:42;;;;;;;1.53;1.43;;;;;;;;;;5095190;28;20450;-58
2022/08/03 12:57:10;;;;;;;4.13;1.60;;;;;;;;;;5095009;28;20447;-58
2022/08/03 12:59:41;;;;;;;1.77;1.47;;;;;;;;;;5095083;28;20909;-58
2022/08/03 13:02:14;;;;;;;2.20;1.37;;;;;;;;;;5095021;28;20486;-58
2022/08/03 13:04:41;;;;;;;3.60;1.80;;;;;;;;;;5094849;28;20457;-57
2022/08/03 13:07:10;;;;;;;1.80;1.50;;;;;;;;;;5094880;28;20458;-58
2022/08/03 13:09:45;;;;;;;1.47;1.33;;;;;;;;;;5094500;28;20467;-58
2022/08/03 13:12:12;;;;;;;2.70;1.50;;;;;;;;;;5094525;28;20481;-58
2022/08/03 13:14:40;;;;;;;10.03;2.90;;;;;;;;;;5094706;28;20459;-58
2022/08/03 13:17:07;;;;;;;8.67;1.90;;;;;;;;;;5094589;28;20937;-58
2022/08/03 13:19:35;;;;;;;1.57;1.40;;;;;;;;;;5094655;28;20519;-58
2022/08/03 13:22:02;;;;;;;2.23;1.60;;;;;;;;;;5094483;28;20934;-57
2022/08/03 13:24:31;;;;;;;2.33;1.43;;;;;;;;;;5094536;28;20954;-57
2022/08/03 13:26:58;;;;;;;2.23;1.53;;;;;;;;;;5094373;28;20443;-57
2022/08/03 13:29:25;;;;;;;2.00;1.53;;;;;;;;;;5094569;28;20447;-57
2022/08/03 13:31:52;;;;;;;2.30;1.90;;;;;;;;;;5094462;28;20525;-58
2022/08/03 13:34:19;;;;;;;7.60;2.50;;;;;;;;;;5093315;28;20463;-57
2022/08/03 13:36:46;;;;;;;6.87;1.73;;;;;;;;;;5094233;28;20449;-57
2022/08/03 13:39:12;;;;;;;2.70;2.03;;;;;;;;;;5094103;28;20975;-57
2022/08/03 13:41:41;;;;;;;2.80;1.50;;;;;;;;;;5094223;28;20451;-57
2022/08/03 13:44:08;;;;;;;1.40;1.30;;;;;;;;;;5094223;28;20779;-58
2022/08/03 13:46:34;;;;;;;1.73;1.63;;;;;;;;;;5094190;28;20486;-57
2022/08/03 13:49:01;;;;;;;2.10;1.57;;;;;;;;;;5094221;28;20489;-57
2022/08/03 13:51:28;;;;;;;1.90;1.80;;;;;;;;;;5093826;28;20550;-57
2022/08/03 13:53:56;;;;;;;2.93;1.80;;;;;;;;;;5093803;28;20446;-57
2022/08/03 13:56:23;;;;;;;1.60;1.50;;;;;;;;;;5093952;28;20460;-58
2022/08/03 13:58:51;;;;;;;1.60;1.50;;;;;;;;;;5093971;28;20529;-58
2022/08/03 14:01:18;;;;;;;2.03;1.60;;;;;;;;;;5094017;28;20507;-58
2022/08/03 14:03:45;;;;;;;2.83;1.70;;;;;;;;;;5093716;28;20450;-57
2022/08/03 14:06:12;;;;;;;2.27;1.53;;;;;;;;;;5093800;28;20537;-58
2022/08/03 14:08:39;;;;;;;1.50;1.40;;;;;;;;;;5093567;28;20450;-58
2022/08/03 14:11:06;;;;;;;1.33;1.23;;;;;;;;;;5093344;28;20494;-58
2022/08/03 14:13:33;;;;;;;2.20;1.47;;;;;;;;;;5093607;28;20541;-58
2022/08/03 14:16:02;;;;;;;2.27;1.70;;;;;;;;;;5093660;28;20451;-58
2022/08/03 14:18:29;;;;;;;1.90;1.50;;;;;;;;;;5093524;28;20446;-58
2022/08/03 14:20:55;;;;;;;1.80;1.60;;;;;;;;;;5093410;28;20805;-58
2022/08/03 14:23:22;;;;;;;2.80;1.20;;;;;;;;;;5093220;28;20454;-58
2022/08/03 14:25:49;;;;;;;1.97;1.40;;;;;;;;;;5093504;28;20482;-58
2022/08/03 14:28:16;;;;;;;1.43;1.33;;;;;;;;;;5093426;28;20482;-58
2022/08/03 14:30:43;;;;;;;4.70;1.87;;;;;;;;;;5093248;28;20451;-58
2022/08/03 14:33:11;;;;;;;1.57;1.40;;;;;;;;;;5093289;28;20453;-58
2022/08/03 14:35:38;;;;;;;2.27;1.40;;;;;;;;;;5093099;28;20883;-58
2022/08/03 14:38:05;;;;;;;1.50;1.40;;;;;;;;;;5093379;28;20452;-58
2022/08/03 14:40:32;;;;;;;2.37;1.40;;;;;;;;;;5093376;28;20447;-58
2022/08/03 14:42:59;;;;;;;2.20;1.10;;;;;;;;;;5093267;28;20938;-58
2022/08/03 14:45:26;;;;;;;1.53;1.20;;;;;;;;;;5092777;28;20546;-58
2022/08/03 14:47:53;;;;;;;1.50;1.40;;;;;;;;;;5093246;28;20551;-58
2022/08/03 14:50:22;;;;;;;1.53;1.40;;;;;;;;;;5093058;28;20511;-58
2022/08/03 14:52:49;;;;;;;3.70;1.53;;;;;;;;;;5093134;28;20486;-60
2022/08/03 14:55:16;;;;;;;4.00;1.23;;;;;;;;;;5093333;28;20450;-57
2022/08/03 14:57:42;;;;;;;1.50;1.23;;;;;;;;;;5093079;28;20462;-57
2022/08/03 15:00:10;;;;;;;2.17;1.40;;;;;;;;;;5093001;28;20813;-57
2022/08/03 15:02:37;;;;;;;1.37;1.27;;;;;;;;;;5092750;28;20447;-58
2022/08/03 15:05:04;;;;;;;1.60;1.27;;;;;;;;;;5093015;28;20473;-58
2022/08/03 15:07:32;;;;;;;3.00;1.20;;;;;;;;;;5093177;28;20443;-57